Time;durP1;ratioP1;P1;durP2;ratioP2;P2;SDS_P1;SDS_P2;PMS_P1;PMS_P2;Temp;Humidity;BMP_temperature;BMP_pressure;BME280_temperature;BME280_humidity;BME280_pressure;Samples;Min_cycle;Max_cycle;Signal;HPM_P1;HPM_P2
2020/12/24 00:05:17;;;;;;;17.70;10.90;;;;;;;-3.30;99.93;101825.69;1752850;80;21178;-90
2020/12/24 00:07:45;;;;;;;20.97;12.63;;;;;;;-3.30;100.00;101829.07;1741777;79;21434;-90
2020/12/24 00:10:13;;;;;;;19.48;11.88;;;;;;;-3.31;100.00;101833.73;1747491;81;21143;-90
2020/12/24 00:12:41;;;;;;;18.95;11.35;;;;;;;-3.31;100.00;101832.46;1737547;81;21068;-90
2020/12/24 00:15:10;;;;;;;21.97;12.23;;;;;;;-3.31;100.00;101824.82;1730150;82;21545;-90
2020/12/24 00:18:13;;;;;;;20.05;12.75;;;;;;;-3.30;100.00;101828.23;1717683;82;21293;-90
2020/12/24 00:20:41;;;;;;;20.68;13.08;;;;;;;-3.30;100.00;101826.52;1724122;82;21658;-90
2020/12/24 00:23:36;;;;;;;21.15;12.78;;;;;;;-3.28;100.00;101822.70;1713668;82;21190;-90
2020/12/24 00:26:05;;;;;;;21.55;13.05;;;;;;;-3.29;100.00;101825.68;1715754;83;21190;-91
2020/12/24 00:28:33;;;;;;;20.37;12.95;;;;;;;-3.29;100.00;101823.57;1714354;82;21107;-90
2020/12/24 00:31:29;;;;;;;19.70;13.00;;;;;;;-3.29;100.00;101824.84;1715492;83;21917;-90
2020/12/24 00:34:18;;;;;;;21.50;12.93;;;;;;;-3.29;100.00;101828.23;1715852;82;21269;-90
2020/12/24 00:40:29;;;;;;;22.35;13.22;;;;;;;-3.26;100.00;101816.78;1717899;82;21151;-90
2020/12/24 00:42:57;;;;;;;21.17;13.38;;;;;;;-3.24;100.00;101806.58;1716301;81;21198;-91
2020/12/24 00:45:25;;;;;;;20.08;12.33;;;;;;;-3.24;100.00;101802.76;1688644;81;21115;-91
2020/12/24 00:47:58;;;;;;;20.75;12.78;;;;;;;-3.24;100.00;101806.14;1701941;83;21275;-90
2020/12/24 00:50:25;;;;;;;24.35;12.90;;;;;;;-3.24;100.00;101804.88;1714843;83;21138;-90
2020/12/24 00:53:05;;;;;;;24.67;14.63;;;;;;;-3.23;100.00;101808.28;1706455;81;21132;-90
2020/12/24 00:59:13;;;;;;;25.57;13.22;;;;;;;-3.23;100.00;101803.19;1711346;83;21255;-91
2020/12/24 01:01:51;;;;;;;26.80;13.60;;;;;;;-3.22;100.00;101803.19;1715107;83;21340;-91
2020/12/24 01:04:21;;;;;;;24.15;14.50;;;;;;;-3.21;100.00;101800.23;1722348;82;21174;-91
2020/12/24 01:06:49;;;;;;;25.08;14.25;;;;;;;-3.23;100.00;101796.38;1707259;83;21076;-91
2020/12/24 01:09:32;;;;;;;23.38;14.07;;;;;;;-3.23;100.00;101795.11;1713939;83;21079;-91
2020/12/24 01:12:08;;;;;;;23.00;13.65;;;;;;;-3.23;100.00;101788.73;1714179;81;21161;-91
2020/12/24 01:14:42;;;;;;;24.18;12.50;;;;;;;-3.23;100.00;101783.64;1746989;81;21377;-90
2020/12/24 01:17:38;;;;;;;23.85;14.00;;;;;;;-3.21;100.00;101785.78;1669512;84;21257;-91
2020/12/24 01:20:07;;;;;;;21.50;12.75;;;;;;;-3.19;100.00;101781.95;1741119;81;21102;-91
2020/12/24 01:23:05;;;;;;;23.32;14.15;;;;;;;-3.20;100.00;101782.38;1738073;81;21924;-90
2020/12/24 01:29:29;;;;;;;25.43;14.25;;;;;;;-3.19;100.00;101772.63;1672603;84;21623;-90
2020/12/24 01:32:31;;;;;;;24.20;13.32;;;;;;;-3.19;100.00;101763.70;1712346;82;21196;-90
2020/12/24 01:35:00;;;;;;;24.17;13.37;;;;;;;-3.19;100.00;101761.56;1751330;81;21134;-91
2020/12/24 01:41:32;;;;;;;19.70;12.07;;;;;;;-3.19;100.00;101757.73;1736448;81;21168;-91
2020/12/24 01:44:01;;;;;;;22.10;12.37;;;;;;;-3.22;100.00;101766.23;1700783;81;22282;-90
2020/12/24 01:53:26;;;;;;;20.80;11.78;;;;;;;-3.19;100.00;101762.84;1728109;81;21223;-91
2020/12/24 01:56:22;;;;;;;21.12;12.25;;;;;;;-3.20;100.00;101758.59;1746909;81;21127;-90
2020/12/24 02:13:08;;;;;;;14.05;9.23;;;;;;;-3.25;100.00;101754.79;1813739;78;22115;-90
2020/12/24 02:15:36;;;;;;;17.52;9.58;;;;;;;-3.29;100.00;101767.52;1797904;78;21143;-91
2020/12/24 02:18:36;;;;;;;12.23;7.90;;;;;;;-3.31;100.00;101767.50;1845073;77;20981;-91
2020/12/24 02:21:04;;;;;;;15.32;8.93;;;;;;;-3.29;100.00;101775.16;1844660;77;20965;-90
2020/12/24 02:27:35;;;;;;;12.13;8.78;;;;;;;-3.28;100.00;101776.43;1841649;77;21013;-92
2020/12/24 02:30:04;;;;;;;12.00;7.80;;;;;;;-3.28;100.00;101768.78;1834456;77;21407;-92
2020/12/24 02:36:32;;;;;;;13.40;8.20;;;;;;;-3.29;100.00;101762.43;1838284;78;21088;-91
2020/12/24 02:39:00;;;;;;;11.22;7.30;;;;;;;-3.28;100.00;101759.00;1790287;78;21063;-90
2020/12/24 02:42:17;;;;;;;10.38;6.58;;;;;;;-3.27;100.00;101756.48;1771868;79;21111;-90
2020/12/24 02:44:45;;;;;;;10.50;6.85;;;;;;;-3.25;100.00;101756.47;1793354;79;21166;-91
2020/12/24 02:55:00;;;;;;;9.10;6.50;;;;;;;-3.20;100.00;101764.55;1838270;77;21116;-91
2020/12/24 02:57:47;;;;;;;8.30;4.87;;;;;;;-3.18;100.00;101758.17;1793700;78;21164;-90
2020/12/24 03:00:30;;;;;;;7.30;4.70;;;;;;;-3.17;100.00;101757.33;1789756;79;21267;-91
2020/12/24 03:03:14;;;;;;;8.90;5.67;;;;;;;-3.16;100.00;101770.50;1801349;78;22245;-91
2020/12/24 03:06:10;;;;;;;5.90;4.42;;;;;;;-3.15;100.00;101772.61;1797153;79;21115;-90
2020/12/24 03:08:43;;;;;;;6.20;4.42;;;;;;;-3.13;100.00;101769.64;1791281;79;21564;-90
2020/12/24 03:11:23;;;;;;;8.08;5.35;;;;;;;-3.10;100.00;101769.22;1757408;79;21242;-89
2020/12/24 03:14:06;;;;;;;7.70;5.35;;;;;;;-3.08;100.00;101773.03;1730591;81;21152;-89
2020/12/24 03:16:38;;;;;;;7.95;5.28;;;;;;;-3.06;100.00;101766.24;1700601;82;21132;-89
2020/12/24 03:19:06;;;;;;;8.73;5.42;;;;;;;-3.06;100.00;101764.56;1724766;82;21171;-89
2020/12/24 03:24:59;;;;;;;8.63;5.65;;;;;;;-3.06;100.00;101758.59;1713826;81;22209;-90
2020/12/24 03:27:27;;;;;;;7.72;5.87;;;;;;;-3.04;100.00;101764.55;1745469;82;21174;-90
2020/12/24 03:29:56;;;;;;;9.15;6.08;;;;;;;-3.05;100.00;101766.67;1739475;81;21110;-90
2020/12/24 03:32:24;;;;;;;7.40;5.60;;;;;;;-3.04;100.00;101758.18;1740900;81;21654;-89
2020/12/24 03:34:52;;;;;;;8.08;5.70;;;;;;;-3.03;100.00;101759.88;1736292;81;21111;-89
2020/12/24 03:37:21;;;;;;;7.67;5.67;;;;;;;-3.02;100.00;101759.88;1731308;81;21172;-90
2020/12/24 03:39:49;;;;;;;8.03;5.72;;;;;;;-2.99;100.00;101761.56;1799015;79;21175;-90
2020/12/24 03:42:17;;;;;;;9.13;5.75;;;;;;;-2.98;100.00;101760.72;1796244;79;22258;-89
2020/12/24 03:44:46;;;;;;;10.48;6.22;;;;;;;-2.98;100.00;101765.81;1787561;79;21206;-89
2020/12/24 03:47:15;;;;;;;6.90;5.30;;;;;;;-2.98;100.00;101756.90;1788634;79;21120;-89
2020/12/24 03:49:49;;;;;;;9.55;6.12;;;;;;;-2.97;100.00;101757.33;1793382;79;21140;-89
2020/12/24 03:52:17;;;;;;;9.60;5.28;;;;;;;-2.97;100.00;101762.86;1785646;79;21187;-89
2020/12/24 03:54:50;;;;;;;8.68;5.35;;;;;;;-2.96;100.00;101766.67;1762073;80;21144;-89
2020/12/24 03:57:19;;;;;;;7.83;5.50;;;;;;;-2.94;100.00;101773.03;1708447;83;21494;-89
2020/12/24 03:59:47;;;;;;;9.35;6.25;;;;;;;-2.93;100.00;101764.14;1766927;80;21210;-90
2020/12/24 04:06:19;;;;;;;16.73;8.53;;;;;;;-2.93;100.00;101766.69;1740024;80;21166;-89
2020/12/24 04:08:48;;;;;;;19.05;9.88;;;;;;;-2.95;100.00;101765.83;1764864;79;21526;-89
2020/12/24 04:11:18;;;;;;;17.35;10.20;;;;;;;-2.97;100.00;101761.59;1768136;80;21218;-89
2020/12/24 04:13:46;;;;;;;15.80;9.73;;;;;;;-3.00;100.00;101758.59;1767832;80;21154;-89
2020/12/24 04:16:21;;;;;;;18.10;10.55;;;;;;;-3.03;100.00;101761.99;1746316;81;21167;-90
2020/12/24 04:18:57;;;;;;;20.45;10.25;;;;;;;-3.03;100.00;101766.25;1758850;79;21542;-90
2020/12/24 04:24:51;;;;;;;20.97;11.70;;;;;;;-3.01;100.00;101763.29;1700906;81;21612;-89
2020/12/24 04:31:23;;;;;;;26.42;14.03;;;;;;;-2.99;100.00;101763.28;1728351;80;21203;-89
2020/12/24 04:33:52;;;;;;;23.20;13.45;;;;;;;-3.01;100.00;101759.03;1709503;81;21528;-90
2020/12/24 04:36:21;;;;;;;24.67;13.50;;;;;;;-3.01;100.00;101762.02;1715430;82;21970;-89
2020/12/24 04:38:55;;;;;;;23.83;16.48;;;;;;;-3.03;100.00;101760.72;1792886;79;21147;-89
2020/12/24 04:41:24;;;;;;;22.10;13.18;;;;;;;-3.03;100.00;101758.17;1796445;79;21492;-89
2020/12/24 04:44:01;;;;;;;21.87;13.62;;;;;;;-3.04;100.00;101761.56;1795928;79;21155;-88
2020/12/24 04:50:22;;;;;;;22.15;14.45;;;;;;;-2.95;100.00;101758.59;1877527;75;23352;-91
2020/12/24 04:52:50;;;;;;;24.20;14.28;;;;;;;-3.00;100.00;101766.23;1817015;79;21111;-92
2020/12/24 04:55:21;;;;;;;29.37;15.80;;;;;;;-3.04;100.00;101763.27;1816807;79;21355;-91
2020/12/24 05:02:34;;;;;;;26.27;15.08;;;;;;;-3.08;100.00;101768.80;1749934;82;21124;-90
2020/12/24 05:05:38;;;;;;;25.00;14.53;;;;;;;-3.09;100.00;101763.71;1772140;81;21132;-90
2020/12/24 05:08:10;;;;;;;25.92;15.23;;;;;;;-3.09;100.00;101762.44;1776621;79;21543;-93
2020/12/24 05:10:42;;;;;;;25.75;15.43;;;;;;;-3.09;100.00;101762.44;1749836;82;21274;-93
2020/12/24 05:13:45;;;;;;;25.08;15.13;;;;;;;-3.09;100.00;101762.44;1745142;82;21194;-93
2020/12/24 05:16:17;;;;;;;27.90;16.52;;;;;;;-3.09;100.00;101753.08;1749767;81;21098;-92
2020/12/24 05:18:45;;;;;;;24.12;15.45;;;;;;;-3.10;100.00;101751.81;1774293;80;21175;-91
2020/12/24 05:25:28;;;;;;;29.18;16.30;;;;;;;-3.09;100.00;101750.53;1767764;79;21237;-92
2020/12/24 05:28:27;;;;;;;29.12;18.50;;;;;;;-3.11;100.00;101759.87;1770623;80;21149;-92
2020/12/24 05:35:24;;;;;;;31.35;17.02;;;;;;;-3.18;100.00;101764.55;1810937;79;21172;-89
2020/12/24 05:42:01;;;;;;;32.25;18.12;;;;;;;-3.20;100.00;101765.83;1780950;80;21134;-90
2020/12/24 05:48:55;;;;;;;31.33;16.15;;;;;;;-3.24;100.00;101760.28;1757755;80;21103;-90
2020/12/24 05:58:53;;;;;;;28.07;16.85;;;;;;;-3.29;100.00;101765.81;1759140;81;21115;-90
2020/12/24 06:06:04;;;;;;;29.42;16.70;;;;;;;-3.33;100.00;101771.77;1764178;80;21609;-90
2020/12/24 06:12:49;;;;;;;29.45;14.43;;;;;;;-3.36;100.00;101767.49;1774806;79;21825;-90
2020/12/24 06:24:00;;;;;;;34.30;18.35;;;;;;;-3.34;100.00;101772.17;1750720;82;21412;-90
2020/12/24 06:35:37;;;;;;;34.65;17.82;;;;;;;-3.33;100.00;101776.86;1767185;79;21139;-89
2020/12/24 06:46:58;;;;;;;77.82;22.85;;;;;;;-3.05;100.00;101767.53;1751211;80;21126;-89
2020/12/24 14:02:07;;;;;;;32.53;16.20;;;;;;;-1.19;100.00;101558.49;1670647;82;21161;-92
2020/12/24 14:04:35;;;;;;;28.95;15.48;;;;;;;-1.18;100.00;101564.47;1656846;86;21202;-92
2020/12/24 14:07:03;;;;;;;28.62;15.38;;;;;;;-1.20;100.00;101563.63;1669479;85;21178;-92
2020/12/24 14:09:31;;;;;;;24.47;13.18;;;;;;;-1.22;100.00;101566.21;1721408;82;21246;-91
2020/12/24 14:11:59;;;;;;;23.62;12.93;;;;;;;-1.22;100.00;101559.82;1720471;81;21531;-91
2020/12/24 14:14:28;;;;;;;25.17;14.65;;;;;;;-1.24;100.00;101551.77;1723157;82;22092;-92
2020/12/24 14:16:56;;;;;;;24.10;12.98;;;;;;;-1.26;100.00;101547.92;1719788;83;21186;-91
2020/12/24 14:19:26;;;;;;;32.45;18.02;;;;;;;-1.27;100.00;101553.48;1725175;82;21606;-93
2020/12/24 14:22:00;;;;;;;35.75;20.40;;;;;;;-1.24;100.00;101553.04;1722511;83;21568;-93
2020/12/24 14:24:28;;;;;;;40.17;20.35;;;;;;;-1.24;100.00;101550.04;1676551;84;21150;-92
2020/12/24 14:26:57;;;;;;;36.40;19.65;;;;;;;-1.24;100.00;101553.04;1656433;85;22126;-92
2020/12/24 14:29:27;;;;;;;30.95;16.97;;;;;;;-1.23;100.00;101547.91;1716095;82;21172;-92
2020/12/24 14:31:55;;;;;;;42.62;21.80;;;;;;;-1.23;100.00;101550.45;1717106;82;21336;-92
2020/12/24 14:34:26;;;;;;;;;;;;;;;-1.21;100.00;101552.98;1716766;82;21228;-91
2020/12/24 14:36:56;;;;;;;26.23;14.20;;;;;;;-1.20;100.00;101545.73;1711465;82;20217;-92
2020/12/24 14:39:26;;;;;;;32.20;13.00;;;;;;;-1.22;100.00;101547.45;1710286;82;21373;-92
2020/12/24 14:41:55;;;;;;;25.72;13.00;;;;;;;-1.21;100.00;101546.59;1713448;82;21197;-92
2020/12/24 14:44:24;;;;;;;25.15;12.73;;;;;;;-1.21;100.00;101550.44;1709839;82;21164;-87
2020/12/24 14:46:53;;;;;;;26.42;10.72;;;;;;;-1.23;100.00;101555.56;1713596;81;21294;-88
2020/12/24 14:49:22;;;;;;;21.37;11.15;;;;;;;-1.19;100.00;101553.38;1714983;81;21655;-87
2020/12/24 14:51:52;;;;;;;25.00;13.32;;;;;;;-1.17;100.00;101545.72;1702562;81;21598;-93
2020/12/24 14:54:41;;;;;;;23.25;11.75;;;;;;;-1.18;100.00;101551.24;1728953;81;21139;-92
2020/12/24 15:05:00;;;;;;;30.17;14.43;;;;;;;-1.18;100.00;101548.69;1704722;82;21215;-93
2020/12/24 15:14:56;;;;;;;102.90;54.58;;;;;;;-1.22;100.00;101539.38;1685329;83;21127;-93
2020/12/24 15:17:48;;;;;;;78.15;45.83;;;;;;;-1.21;100.00;101550.02;1689897;81;21143;-95
2020/12/24 15:24:09;;;;;;;26.52;15.00;;;;;;;-1.17;100.00;101560.61;1682191;84;21638;-92
2020/12/24 15:27:03;;;;;;;20.15;11.30;;;;;;;-1.11;100.00;101560.98;1662626;84;21290;-92
2020/12/24 15:37:12;;;;;;;13.05;7.72;;;;;;;-1.09;100.00;101545.20;1661227;84;21212;-92
2020/12/24 15:39:40;;;;;;;11.95;7.65;;;;;;;-1.16;100.00;101546.97;1677024;82;22141;-92
2020/12/24 15:42:08;;;;;;;11.20;6.65;;;;;;;-1.20;100.00;101541.45;1687052;84;21647;-92
2020/12/24 15:44:36;;;;;;;11.35;6.12;;;;;;;-1.21;100.00;101546.19;1687488;83;21580;-92
2020/12/24 15:54:56;;;;;;;13.53;8.68;;;;;;;-1.40;100.00;101537.01;1619958;86;21601;-96
2020/12/24 15:58:16;;;;;;;10.65;7.45;;;;;;;-1.43;100.00;101532.78;1693188;84;21270;-96
2020/12/24 16:07:59;;;;;;;7.95;4.92;;;;;;;-1.57;100.00;101535.47;1658841;84;21185;-93
2020/12/24 16:22:26;;;;;;;7.47;4.65;;;;;;;-1.78;100.00;101517.36;1683869;83;21084;-96
2020/12/24 16:25:44;;;;;;;11.78;4.47;;;;;;;-1.82;100.00;101516.98;1687357;83;21240;-96
2020/12/24 16:36:04;;;;;;;8.50;4.95;;;;;;;-1.98;100.00;101497.97;1617132;85;21312;-93
2020/12/24 16:39:25;;;;;;;26.90;17.70;;;;;;;-2.05;100.00;101487.41;1670937;83;21183;-94
2020/12/24 16:45:57;;;;;;;12.93;9.55;;;;;;;-2.17;100.00;101483.25;1662773;84;21413;-95
2020/12/24 16:48:35;;;;;;;10.68;7.15;;;;;;;-2.24;100.00;101477.75;1652007;85;21230;-94
2020/12/24 16:55:07;;;;;;;7.72;4.72;;;;;;;-2.32;100.00;101473.16;1630629;86;21811;-94
2020/12/24 16:58:23;;;;;;;11.18;4.97;;;;;;;-2.39;100.00;101473.19;1580384;88;21200;-94
